sensor_id;sensor_type;location;lat;lon;timestamp;noise_LAeq;noise_LA_min;noise_LA_max;noise_LA01;noise_LA95
70740;Laerm;58330;51.888;11.052;2024-02-28T00:00:23;31.88;30.64;33.33;;
70740;Laerm;58330;51.888;11.052;2024-02-28T00:02:50;31.87;30.55;33.00;;
70740;Laerm;58330;51.888;11.052;2024-02-28T00:05:16;31.86;30.50;32.98;;
70740;Laerm;58330;51.888;11.052;2024-02-28T00:07:42;31.85;30.70;33.17;;
70740;Laerm;58330;51.888;11.052;2024-02-28T00:10:11;31.86;30.50;33.41;;
70740;Laerm;58330;51.888;11.052;2024-02-28T00:12:38;31.87;30.45;33.39;;
70740;Laerm;58330;51.888;11.052;2024-02-28T00:15:05;31.86;30.53;33.07;;
70740;Laerm;58330;51.888;11.052;2024-02-28T00:17:37;31.86;30.71;33.02;;
70740;Laerm;58330;51.888;11.052;2024-02-28T00:20:04;31.87;30.67;33.90;;
70740;Laerm;58330;51.888;11.052;2024-02-28T00:22:31;31.86;30.50;33.11;;
70740;Laerm;58330;51.888;11.052;2024-02-28T00:24:58;31.84;30.31;33.07;;
70740;Laerm;58330;51.888;11.052;2024-02-28T00:27:26;31.85;30.32;33.09;;
70740;Laerm;58330;51.888;11.052;2024-02-28T00:29:52;31.84;30.48;32.90;;
70740;Laerm;58330;51.888;11.052;2024-02-28T00:32:19;31.86;30.61;33.19;;
70740;Laerm;58330;51.888;11.052;2024-02-28T00:34:47;31.85;30.57;33.01;;
70740;Laerm;58330;51.888;11.052;2024-02-28T00:37:13;31.86;30.57;33.86;;
70740;Laerm;58330;51.888;11.052;2024-02-28T00:39:39;31.86;30.56;34.41;;
70740;Laerm;58330;51.888;11.052;2024-02-28T00:42:06;31.86;30.51;33.13;;
70740;Laerm;58330;51.888;11.052;2024-02-28T00:44:33;31.84;30.49;33.14;;
70740;Laerm;58330;51.888;11.052;2024-02-28T00:46:59;31.86;30.60;33.17;;
70740;Laerm;58330;51.888;11.052;2024-02-28T00:49:26;31.86;30.60;32.97;;
70740;Laerm;58330;51.888;11.052;2024-02-28T00:51:53;31.85;30.62;33.11;;
70740;Laerm;58330;51.888;11.052;2024-02-28T00:54:21;31.84;30.20;33.24;;
70740;Laerm;58330;51.888;11.052;2024-02-28T00:56:50;31.84;30.66;32.96;;
70740;Laerm;58330;51.888;11.052;2024-02-28T00:59:16;31.84;30.34;33.04;;
70740;Laerm;58330;51.888;11.052;2024-02-28T01:01:43;31.84;30.44;33.44;;
70740;Laerm;58330;51.888;11.052;2024-02-28T01:04:09;31.84;30.69;33.09;;
70740;Laerm;58330;51.888;11.052;2024-02-28T01:06:36;31.84;30.26;33.87;;
70740;Laerm;58330;51.888;11.052;2024-02-28T01:09:04;31.84;30.40;33.18;;
70740;Laerm;58330;51.888;11.052;2024-02-28T01:11:31;31.84;30.39;32.97;;
70740;Laerm;58330;51.888;11.052;2024-02-28T01:13:57;31.84;30.43;34.92;;
70740;Laerm;58330;51.888;11.052;2024-02-28T01:16:24;31.85;30.51;33.32;;
70740;Laerm;58330;51.888;11.052;2024-02-28T01:18:50;31.85;30.60;33.09;;
70740;Laerm;58330;51.888;11.052;2024-02-28T01:21:17;31.83;30.47;33.11;;
70740;Laerm;58330;51.888;11.052;2024-02-28T01:23:44;31.85;30.45;35.10;;
70740;Laerm;58330;51.888;11.052;2024-02-28T01:26:12;31.86;30.63;33.35;;
70740;Laerm;58330;51.888;11.052;2024-02-28T01:28:38;31.84;30.56;32.92;;
70740;Laerm;58330;51.888;11.052;2024-02-28T01:31:05;31.84;30.39;33.11;;
70740;Laerm;58330;51.888;11.052;2024-02-28T01:33:31;31.85;30.62;33.20;;
70740;Laerm;58330;51.888;11.052;2024-02-28T01:35:58;31.83;30.48;33.18;;
70740;Laerm;58330;51.888;11.052;2024-02-28T01:38:24;31.85;30.57;33.76;;
70740;Laerm;58330;51.888;11.052;2024-02-28T01:40:51;31.84;30.42;33.00;;
70740;Laerm;58330;51.888;11.052;2024-02-28T01:43:19;31.85;30.63;33.14;;
70740;Laerm;58330;51.888;11.052;2024-02-28T01:45:46;31.85;30.63;34.56;;
70740;Laerm;58330;51.888;11.052;2024-02-28T01:48:12;31.86;30.53;33.35;;
70740;Laerm;58330;51.888;11.052;2024-02-28T01:50:39;31.85;30.74;33.04;;
70740;Laerm;58330;51.888;11.052;2024-02-28T01:53:05;31.86;30.71;33.13;;
70740;Laerm;58330;51.888;11.052;2024-02-28T01:55:33;31.86;30.56;33.09;;
70740;Laerm;58330;51.888;11.052;2024-02-28T01:58:00;31.85;30.66;33.09;;
70740;Laerm;58330;51.888;11.052;2024-02-28T02:00:28;31.86;30.45;33.52;;
70740;Laerm;58330;51.888;11.052;2024-02-28T02:02:54;31.86;30.49;33.90;;
70740;Laerm;58330;51.888;11.052;2024-02-28T02:05:21;31.86;30.66;32.99;;
70740;Laerm;58330;51.888;11.052;2024-02-28T02:07:48;31.86;30.67;34.71;;
70740;Laerm;58330;51.888;11.052;2024-02-28T02:10:14;31.85;30.49;32.96;;
70740;Laerm;58330;51.888;11.052;2024-02-28T02:12:41;31.86;30.52;33.11;;
70740;Laerm;58330;51.888;11.052;2024-02-28T02:15:07;31.85;30.48;33.11;;
70740;Laerm;58330;51.888;11.052;2024-02-28T02:17:35;31.86;30.57;34.28;;
70740;Laerm;58330;51.888;11.052;2024-02-28T02:20:02;31.85;30.63;32.98;;
70740;Laerm;58330;51.888;11.052;2024-02-28T02:22:32;31.86;30.45;33.07;;
70740;Laerm;58330;51.888;11.052;2024-02-28T02:24:58;31.85;30.57;33.16;;
70740;Laerm;58330;51.888;11.052;2024-02-28T02:27:25;31.86;30.45;33.77;;
70740;Laerm;58330;51.888;11.052;2024-02-28T02:29:52;31.86;30.67;33.61;;
70740;Laerm;58330;51.888;11.052;2024-02-28T02:32:18;31.84;30.46;33.08;;
70740;Laerm;58330;51.888;11.052;2024-02-28T02:34:44;31.85;30.49;33.05;;
70740;Laerm;58330;51.888;11.052;2024-02-28T02:37:11;31.85;30.28;33.02;;
70740;Laerm;58330;51.888;11.052;2024-02-28T02:39:39;31.84;30.58;33.09;;
70740;Laerm;58330;51.888;11.052;2024-02-28T02:42:05;31.86;30.59;33.11;;
70740;Laerm;58330;51.888;11.052;2024-02-28T02:44:32;31.86;30.61;33.93;;
70740;Laerm;58330;51.888;11.052;2024-02-28T02:46:59;31.85;30.65;32.97;;
70740;Laerm;58330;51.888;11.052;2024-02-28T02:49:25;31.86;30.66;33.54;;
70740;Laerm;58330;51.888;11.052;2024-02-28T02:51:52;31.86;30.52;33.12;;
70740;Laerm;58330;51.888;11.052;2024-02-28T02:54:18;31.86;30.65;33.08;;
70740;Laerm;58330;51.888;11.052;2024-02-28T02:56:46;31.86;30.59;32.93;;
70740;Laerm;58330;51.888;11.052;2024-02-28T02:59:12;31.86;30.35;33.09;;
70740;Laerm;58330;51.888;11.052;2024-02-28T03:01:39;31.86;30.64;32.97;;
70740;Laerm;58330;51.888;11.052;2024-02-28T03:04:06;31.86;30.59;32.94;;
70740;Laerm;58330;51.888;11.052;2024-02-28T03:06:32;31.86;30.49;33.07;;
70740;Laerm;58330;51.888;11.052;2024-02-28T03:08:59;31.86;30.65;33.16;;
70740;Laerm;58330;51.888;11.052;2024-02-28T03:11:25;31.85;30.38;33.20;;
70740;Laerm;58330;51.888;11.052;2024-02-28T03:13:53;31.84;30.49;32.96;;
70740;Laerm;58330;51.888;11.052;2024-02-28T03:16:19;31.82;30.42;35.31;;
70740;Laerm;58330;51.888;11.052;2024-02-28T03:18:46;31.82;30.65;33.28;;
70740;Laerm;58330;51.888;11.052;2024-02-28T03:21:12;31.83;30.59;32.96;;
70740;Laerm;58330;51.888;11.052;2024-02-28T03:23:39;31.84;30.39;33.28;;
70740;Laerm;58330;51.888;11.052;2024-02-28T03:26:05;31.85;30.42;33.06;;
70740;Laerm;58330;51.888;11.052;2024-02-28T03:28:32;31.84;30.33;33.58;;
70740;Laerm;58330;51.888;11.052;2024-02-28T03:30:59;31.85;30.61;33.05;;
70740;Laerm;58330;51.888;11.052;2024-02-28T03:33:26;31.85;30.22;33.01;;
70740;Laerm;58330;51.888;11.052;2024-02-28T03:35:52;31.84;30.47;33.22;;
70740;Laerm;58330;51.888;11.052;2024-02-28T03:38:19;31.83;30.55;33.08;;
70740;Laerm;58330;51.888;11.052;2024-02-28T03:40:45;31.83;29.78;33.19;;
70740;Laerm;58330;51.888;11.052;2024-02-28T03:43:12;19.41;-323.53;32.84;;
70740;Laerm;58330;51.888;11.052;2024-02-28T03:45:39;5.00;5.00;5.00;;
70740;Laerm;58330;51.888;11.052;2024-02-28T03:48:07;5.00;5.00;5.00;;
70740;Laerm;58330;51.888;11.052;2024-02-28T03:50:33;5.00;5.00;5.00;;
70740;Laerm;58330;51.888;11.052;2024-02-28T03:53:00;5.00;5.00;5.00;;
70740;Laerm;58330;51.888;11.052;2024-02-28T03:55:26;5.00;5.00;5.00;;
70740;Laerm;58330;51.888;11.052;2024-02-28T03:57:53;5.00;5.00;5.00;;
70740;Laerm;58330;51.888;11.052;2024-02-28T04:00:20;5.00;5.00;5.00;;
70740;Laerm;58330;51.888;11.052;2024-02-28T04:02:46;5.00;5.00;5.00;;
70740;Laerm;58330;51.888;11.052;2024-02-28T04:05:14;5.00;5.00;5.00;;
70740;Laerm;58330;51.888;11.052;2024-02-28T04:07:42;5.00;5.00;5.00;;
70740;Laerm;58330;51.888;11.052;2024-02-28T04:10:09;5.00;5.00;5.00;;
70740;Laerm;58330;51.888;11.052;2024-02-28T04:12:36;5.00;5.00;5.00;;
70740;Laerm;58330;51.888;11.052;2024-02-28T04:15:03;5.00;5.00;5.00;;
70740;Laerm;58330;51.888;11.052;2024-02-28T04:17:29;5.00;5.00;5.00;;
70740;Laerm;58330;51.888;11.052;2024-02-28T04:19:56;5.00;5.00;5.00;;
70740;Laerm;58330;51.888;11.052;2024-02-28T04:22:24;5.00;5.00;5.00;;
70740;Laerm;58330;51.888;11.052;2024-02-28T04:24:51;5.00;5.00;5.00;;
70740;Laerm;58330;51.888;11.052;2024-02-28T04:27:16;5.00;5.00;5.00;;
70740;Laerm;58330;51.888;11.052;2024-02-28T04:29:43;5.00;5.00;5.00;;
70740;Laerm;58330;51.888;11.052;2024-02-28T04:32:09;5.00;5.00;5.00;;
70740;Laerm;58330;51.888;11.052;2024-02-28T04:34:36;5.00;5.00;5.00;;
70740;Laerm;58330;51.888;11.052;2024-02-28T04:37:02;5.00;5.00;5.00;;
70740;Laerm;58330;51.888;11.052;2024-02-28T04:39:30;5.00;5.00;5.00;;
70740;Laerm;58330;51.888;11.052;2024-02-28T04:41:56;5.00;5.00;5.00;;
70740;Laerm;58330;51.888;11.052;2024-02-28T04:44:23;5.00;5.00;5.00;;
70740;Laerm;58330;51.888;11.052;2024-02-28T04:46:49;5.00;5.00;5.00;;
70740;Laerm;58330;51.888;11.052;2024-02-28T04:49:16;5.00;5.00;5.00;;
70740;Laerm;58330;51.888;11.052;2024-02-28T04:51:42;5.00;5.00;5.00;;
70740;Laerm;58330;51.888;11.052;2024-02-28T04:54:09;5.00;5.00;5.00;;
70740;Laerm;58330;51.888;11.052;2024-02-28T04:56:40;5.00;5.00;5.00;;
70740;Laerm;58330;51.888;11.052;2024-02-28T04:59:07;5.00;5.00;5.00;;
70740;Laerm;58330;51.888;11.052;2024-02-28T05:01:33;5.00;5.00;5.00;;
70740;Laerm;58330;51.888;11.052;2024-02-28T05:04:00;5.00;5.00;5.00;;
70740;Laerm;58330;51.888;11.052;2024-02-28T05:06:27;5.00;5.00;5.00;;
70740;Laerm;58330;51.888;11.052;2024-02-28T05:08:53;5.00;5.00;5.00;;
70740;Laerm;58330;51.888;11.052;2024-02-28T05:11:20;5.00;5.00;5.00;;
70740;Laerm;58330;51.888;11.052;2024-02-28T05:13:48;5.00;5.00;5.00;;
70740;Laerm;58330;51.888;11.052;2024-02-28T05:16:14;5.00;5.00;5.00;;
70740;Laerm;58330;51.888;11.052;2024-02-28T05:18:41;5.00;5.00;5.00;;
70740;Laerm;58330;51.888;11.052;2024-02-28T05:21:08;5.00;5.00;5.00;;
70740;Laerm;58330;51.888;11.052;2024-02-28T05:23:34;5.00;5.00;5.00;;
70740;Laerm;58330;51.888;11.052;2024-02-28T05:26:01;5.00;5.00;5.00;;
70740;Laerm;58330;51.888;11.052;2024-02-28T05:28:29;5.00;5.00;5.00;;
70740;Laerm;58330;51.888;11.052;2024-02-28T05:30:56;5.00;5.00;5.00;;
70740;Laerm;58330;51.888;11.052;2024-02-28T05:33:23;5.00;5.00;5.00;;
70740;Laerm;58330;51.888;11.052;2024-02-28T05:35:49;5.00;5.00;5.00;;
70740;Laerm;58330;51.888;11.052;2024-02-28T05:38:16;5.00;5.00;5.00;;
70740;Laerm;58330;51.888;11.052;2024-02-28T05:40:42;5.00;5.00;5.00;;
70740;Laerm;58330;51.888;11.052;2024-02-28T05:43:09;5.00;5.00;5.00;;
70740;Laerm;58330;51.888;11.052;2024-02-28T05:45:35;5.00;5.00;5.00;;
70740;Laerm;58330;51.888;11.052;2024-02-28T05:48:03;5.00;5.00;5.00;;
70740;Laerm;58330;51.888;11.052;2024-02-28T05:50:29;5.00;5.00;5.00;;
70740;Laerm;58330;51.888;11.052;2024-02-28T05:52:57;5.00;5.00;5.00;;
70740;Laerm;58330;51.888;11.052;2024-02-28T05:55:24;5.00;5.00;5.00;;
70740;Laerm;58330;51.888;11.052;2024-02-28T05:57:51;23.55;5.00;32.37;;
70740;Laerm;58330;51.888;11.052;2024-02-28T06:00:18;31.25;30.19;32.40;;
70740;Laerm;58330;51.888;11.052;2024-02-28T06:02:44;31.19;29.99;32.33;;
70740;Laerm;58330;51.888;11.052;2024-02-28T06:05:12;31.11;29.85;32.39;;
70740;Laerm;58330;51.888;11.052;2024-02-28T06:07:39;31.05;29.79;32.10;;
70740;Laerm;58330;51.888;11.052;2024-02-28T06:10:05;30.99;29.33;32.28;;
70740;Laerm;58330;51.888;11.052;2024-02-28T06:12:33;30.97;29.85;31.99;;
70740;Laerm;58330;51.888;11.052;2024-02-28T06:14:59;30.93;29.59;32.08;;
70740;Laerm;58330;51.888;11.052;2024-02-28T06:17:26;30.87;29.65;32.05;;
70740;Laerm;58330;51.888;11.052;2024-02-28T06:19:52;30.80;29.70;31.82;;
70740;Laerm;58330;51.888;11.052;2024-02-28T06:22:20;30.72;29.37;31.83;;
70740;Laerm;58330;51.888;11.052;2024-02-28T06:24:46;30.65;29.60;31.72;;
70740;Laerm;58330;51.888;11.052;2024-02-28T06:27:13;30.60;29.42;31.72;;
70740;Laerm;58330;51.888;11.052;2024-02-28T06:29:40;30.59;29.40;31.70;;
70740;Laerm;58330;51.888;11.052;2024-02-28T06:32:06;30.53;29.28;31.69;;
70740;Laerm;58330;51.888;11.052;2024-02-28T06:34:33;30.50;29.25;31.65;;
70740;Laerm;58330;51.888;11.052;2024-02-28T06:36:59;30.49;29.36;31.70;;
70740;Laerm;58330;51.888;11.052;2024-02-28T06:39:27;30.45;29.37;31.58;;
70740;Laerm;58330;51.888;11.052;2024-02-28T06:41:54;30.48;29.19;31.57;;
70740;Laerm;58330;51.888;11.052;2024-02-28T06:44:21;30.49;29.05;31.67;;
70740;Laerm;58330;51.888;11.052;2024-02-28T06:46:47;30.47;29.23;31.73;;
70740;Laerm;58330;51.888;11.052;2024-02-28T06:49:13;30.39;29.25;31.55;;
70740;Laerm;58330;51.888;11.052;2024-02-28T06:51:40;30.40;28.95;31.46;;
70740;Laerm;58330;51.888;11.052;2024-02-28T06:54:06;30.45;29.35;31.74;;
70740;Laerm;58330;51.888;11.052;2024-02-28T06:56:34;30.68;29.40;31.79;;
70740;Laerm;58330;51.888;11.052;2024-02-28T06:59:01;30.88;29.78;32.07;;
70740;Laerm;58330;51.888;11.052;2024-02-28T07:01:32;30.94;29.85;32.15;;
70740;Laerm;58330;51.888;11.052;2024-02-28T07:03:58;31.01;29.83;32.38;;
70740;Laerm;58330;51.888;11.052;2024-02-28T07:06:25;31.06;29.94;32.03;;
70740;Laerm;58330;51.888;11.052;2024-02-28T07:08:51;31.13;29.91;32.32;;
70740;Laerm;58330;51.888;11.052;2024-02-28T07:11:18;31.21;30.00;32.72;;
70740;Laerm;58330;51.888;11.052;2024-02-28T07:13:45;31.20;29.93;32.37;;
70740;Laerm;58330;51.888;11.052;2024-02-28T07:16:12;31.20;30.03;32.34;;
70740;Laerm;58330;51.888;11.052;2024-02-28T07:18:39;31.19;30.00;32.33;;
70740;Laerm;58330;51.888;11.052;2024-02-28T07:21:05;31.16;29.97;32.20;;
70740;Laerm;58330;51.888;11.052;2024-02-28T07:23:33;31.09;29.84;32.16;;
70740;Laerm;58330;51.888;11.052;2024-02-28T07:25:59;30.94;29.75;32.05;;
70740;Laerm;58330;51.888;11.052;2024-02-28T07:28:26;30.67;29.32;31.80;;
70740;Laerm;58330;51.888;11.052;2024-02-28T07:30:54;30.29;29.06;31.51;;
70740;Laerm;58330;51.888;11.052;2024-02-28T07:33:20;29.94;28.78;31.11;;
70740;Laerm;58330;51.888;11.052;2024-02-28T07:35:47;29.78;28.67;31.24;;
70740;Laerm;58330;51.888;11.052;2024-02-28T07:38:13;30.10;28.93;31.35;;
70740;Laerm;58330;51.888;11.052;2024-02-28T07:40:42;30.71;29.21;32.42;;
70740;Laerm;58330;51.888;11.052;2024-02-28T07:43:08;31.70;30.29;32.94;;
70740;Laerm;58330;51.888;11.052;2024-02-28T07:45:35;32.00;30.55;33.08;;
70740;Laerm;58330;51.888;11.052;2024-02-28T07:48:03;31.97;30.73;33.10;;
70740;Laerm;58330;51.888;11.052;2024-02-28T07:50:31;49.27;29.93;85.51;;
70740;Laerm;58330;51.888;11.052;2024-02-28T07:52:57;31.12;29.72;32.93;;
70740;Laerm;58330;51.888;11.052;2024-02-28T07:55:24;74.68;29.55;108.70;;
70740;Laerm;58330;51.888;11.052;2024-02-28T07:57:50;31.03;29.39;32.81;;
70740;Laerm;58330;51.888;11.052;2024-02-28T08:00:17;30.16;28.75;31.56;;
70740;Laerm;58330;51.888;11.052;2024-02-28T08:02:45;30.32;28.93;31.91;;
70740;Laerm;58330;51.888;11.052;2024-02-28T08:05:13;29.90;28.42;31.64;;
70740;Laerm;58330;51.888;11.052;2024-02-28T08:07:39;29.29;28.02;30.62;;
70740;Laerm;58330;51.888;11.052;2024-02-28T08:10:06;29.10;27.59;30.33;;
70740;Laerm;58330;51.888;11.052;2024-02-28T08:12:35;29.11;27.76;30.46;;
70740;Laerm;58330;51.888;11.052;2024-02-28T08:15:01;84.36;27.57;112.20;;
70740;Laerm;58330;51.888;11.052;2024-02-28T08:17:28;87.95;-334.33;111.52;;
70740;Laerm;58330;51.888;11.052;2024-02-28T08:19:55;5.00;5.00;5.00;;
70740;Laerm;58330;51.888;11.052;2024-02-28T08:22:23;28.33;5.00;29.91;;
70740;Laerm;58330;51.888;11.052;2024-02-28T08:24:50;28.45;27.28;29.59;;
70740;Laerm;58330;51.888;11.052;2024-02-28T08:27:17;28.43;27.07;29.68;;
70740;Laerm;58330;51.888;11.052;2024-02-28T08:29:44;28.53;27.09;29.72;;
70740;Laerm;58330;51.888;11.052;2024-02-28T08:32:11;28.45;27.04;29.77;;
70740;Laerm;58330;51.888;11.052;2024-02-28T08:34:43;28.30;26.93;29.49;;
70740;Laerm;58330;51.888;11.052;2024-02-28T08:37:10;28.23;26.93;29.44;;
70740;Laerm;58330;51.888;11.052;2024-02-28T08:39:38;28.22;26.99;29.42;;
70740;Laerm;58330;51.888;11.052;2024-02-28T08:42:05;28.23;26.95;29.43;;
70740;Laerm;58330;51.888;11.052;2024-02-28T08:44:31;28.23;27.06;29.41;;
70740;Laerm;58330;51.888;11.052;2024-02-28T08:46:58;28.21;27.00;29.42;;
70740;Laerm;58330;51.888;11.052;2024-02-28T08:49:25;28.28;27.03;29.47;;
70740;Laerm;58330;51.888;11.052;2024-02-28T08:51:51;28.25;27.06;29.47;;
70740;Laerm;58330;51.888;11.052;2024-02-28T08:54:18;28.23;26.91;29.43;;
70740;Laerm;58330;51.888;11.052;2024-02-28T08:56:46;28.29;27.08;29.70;;
70740;Laerm;58330;51.888;11.052;2024-02-28T08:59:13;28.30;26.79;29.67;;
70740;Laerm;58330;51.888;11.052;2024-02-28T09:01:39;28.21;26.92;29.32;;
70740;Laerm;58330;51.888;11.052;2024-02-28T09:04:06;28.25;26.92;29.36;;
70740;Laerm;58330;51.888;11.052;2024-02-28T09:06:33;28.54;27.22;29.92;;
70740;Laerm;58330;51.888;11.052;2024-02-28T09:09:00;28.64;27.38;29.89;;
70740;Laerm;58330;51.888;11.052;2024-02-28T09:11:27;28.41;27.17;29.86;;
70740;Laerm;58330;51.888;11.052;2024-02-28T09:13:55;28.30;27.18;29.74;;
70740;Laerm;58330;51.888;11.052;2024-02-28T09:16:24;28.38;27.09;29.59;;
70740;Laerm;58330;51.888;11.052;2024-02-28T09:18:51;28.51;27.19;29.70;;
70740;Laerm;58330;51.888;11.052;2024-02-28T09:21:18;28.67;27.40;30.08;;
70740;Laerm;58330;51.888;11.052;2024-02-28T09:23:44;28.60;27.42;29.89;;
70740;Laerm;58330;51.888;11.052;2024-02-28T09:26:11;28.58;27.29;29.78;;
70740;Laerm;58330;51.888;11.052;2024-02-28T09:28:40;30.75;-329.56;63.37;;
70740;Laerm;58330;51.888;11.052;2024-02-28T09:31:08;28.77;27.57;33.42;;
70740;Laerm;58330;51.888;11.052;2024-02-28T09:33:34;28.98;27.63;30.21;;
70740;Laerm;58330;51.888;11.052;2024-02-28T09:36:01;28.92;27.42;30.30;;
70740;Laerm;58330;51.888;11.052;2024-02-28T09:38:30;29.26;27.94;30.36;;
70740;Laerm;58330;51.888;11.052;2024-02-28T09:40:57;29.45;28.06;30.58;;
70740;Laerm;58330;51.888;11.052;2024-02-28T09:43:24;20.38;-323.91;30.68;;
70740;Laerm;58330;51.888;11.052;2024-02-28T09:45:54;5.00;5.00;5.00;;
70740;Laerm;58330;51.888;11.052;2024-02-28T09:48:25;5.00;5.00;5.00;;
70740;Laerm;58330;51.888;11.052;2024-02-28T09:50:53;5.00;5.00;5.00;;
70740;Laerm;58330;51.888;11.052;2024-02-28T09:53:20;49.26;5.00;85.51;;
70740;Laerm;58330;51.888;11.052;2024-02-28T09:55:48;29.93;28.60;31.42;;
70740;Laerm;58330;51.888;11.052;2024-02-28T09:58:16;63.79;-28.08;96.22;;
70740;Laerm;58330;51.888;11.052;2024-02-28T10:00:43;55.61;53.69;59.10;;
70740;Laerm;58330;51.888;11.052;2024-02-28T10:03:11;55.46;53.60;58.71;;
70740;Laerm;58330;51.888;11.052;2024-02-28T10:05:39;56.54;53.66;60.82;;
70740;Laerm;58330;51.888;11.052;2024-02-28T10:08:08;86.09;-328.31;111.99;;
70740;Laerm;58330;51.888;11.052;2024-02-28T10:10:38;40.39;-325.88;73.77;;
70740;Laerm;58330;51.888;11.052;2024-02-28T10:13:08;60.86;-331.32;90.40;;
70740;Laerm;58330;51.888;11.052;2024-02-28T10:15:34;105.85;-271.84;114.09;;
70740;Laerm;58330;51.888;11.052;2024-02-28T10:18:07;91.58;4.81;106.85;;
70740;Laerm;58330;51.888;11.052;2024-02-28T10:20:33;32.90;27.10;67.28;;
70740;Laerm;58330;51.888;11.052;2024-02-28T10:23:04;28.24;27.09;29.34;;
70740;Laerm;58330;51.888;11.052;2024-02-28T10:25:33;28.37;27.07;29.66;;
70740;Laerm;58330;51.888;11.052;2024-02-28T10:28:00;28.54;27.21;29.94;;
70740;Laerm;58330;51.888;11.052;2024-02-28T10:30:26;28.69;26.65;53.65;;
70740;Laerm;58330;51.888;11.052;2024-02-28T10:32:53;75.43;-325.88;99.24;;
70740;Laerm;58330;51.888;11.052;2024-02-28T10:35:21;69.54;-326.54;96.24;;
70740;Laerm;58330;51.888;11.052;2024-02-28T10:37:50;28.29;27.19;29.42;;
70740;Laerm;58330;51.888;11.052;2024-02-28T10:40:19;28.63;-122.33;54.19;;
70740;Laerm;58330;51.888;11.052;2024-02-28T10:42:46;28.33;27.03;29.53;;
70740;Laerm;58330;51.888;11.052;2024-02-28T10:45:14;28.32;27.04;29.36;;
70740;Laerm;58330;51.888;11.052;2024-02-28T10:47:43;60.45;26.98;96.28;;
70740;Laerm;58330;51.888;11.052;2024-02-28T10:50:10;86.18;-326.54;105.79;;
70740;Laerm;58330;51.888;11.052;2024-02-28T10:52:38;28.32;27.24;29.49;;
70740;Laerm;58330;51.888;11.052;2024-02-28T10:55:08;28.35;27.13;29.62;;
70740;Laerm;58330;51.888;11.052;2024-02-28T10:57:36;28.32;26.94;43.50;;
70740;Laerm;58330;51.888;11.052;2024-02-28T11:00:03;28.24;27.06;29.60;;
70740;Laerm;58330;51.888;11.052;2024-02-28T11:02:30;102.62;20.93;112.42;;
70740;Laerm;58330;51.888;11.052;2024-02-28T11:04:58;104.47;19.99;116.73;;
70740;Laerm;58330;51.888;11.052;2024-02-28T11:07:27;29.13;27.72;30.33;;
70740;Laerm;58330;51.888;11.052;2024-02-28T11:09:53;29.04;27.75;30.37;;
70740;Laerm;58330;51.888;11.052;2024-02-28T11:12:24;29.22;28.02;30.65;;
70740;Laerm;58330;51.888;11.052;2024-02-28T11:14:58;29.48;28.27;30.66;;
70740;Laerm;58330;51.888;11.052;2024-02-28T11:17:28;29.42;28.03;30.66;;
70740;Laerm;58330;51.888;11.052;2024-02-28T11:19:55;29.44;28.22;30.78;;
70740;Laerm;58330;51.888;11.052;2024-02-28T11:22:21;29.32;28.10;30.86;;
70740;Laerm;58330;51.888;11.052;2024-02-28T11:24:48;29.49;28.00;30.73;;
70740;Laerm;58330;51.888;11.052;2024-02-28T11:27:15;29.39;28.20;30.60;;
70740;Laerm;58330;51.888;11.052;2024-02-28T11:29:42;29.27;27.71;30.50;;
70740;Laerm;58330;51.888;11.052;2024-02-28T11:32:11;29.39;28.07;30.67;;
70740;Laerm;58330;51.888;11.052;2024-02-28T11:34:38;29.34;27.73;30.65;;
70740;Laerm;58330;51.888;11.052;2024-02-28T11:37:05;29.55;28.20;30.83;;
70740;Laerm;58330;51.888;11.052;2024-02-28T11:39:32;29.91;28.68;31.02;;
70740;Laerm;58330;51.888;11.052;2024-02-28T11:42:08;29.76;28.40;31.11;;
70740;Laerm;58330;51.888;11.052;2024-02-28T11:44:35;35.25;28.23;64.43;;
70740;Laerm;58330;51.888;11.052;2024-02-28T11:47:01;29.66;28.31;30.89;;
70740;Laerm;58330;51.888;11.052;2024-02-28T11:49:32;29.53;28.15;30.68;;
70740;Laerm;58330;51.888;11.052;2024-02-28T11:51:58;29.50;28.12;30.98;;
70740;Laerm;58330;51.888;11.052;2024-02-28T11:54:25;29.57;28.32;30.72;;
70740;Laerm;58330;51.888;11.052;2024-02-28T11:56:51;29.58;28.37;30.74;;
70740;Laerm;58330;51.888;11.052;2024-02-28T11:59:18;29.67;28.38;30.89;;
70740;Laerm;58330;51.888;11.052;2024-02-28T12:01:45;29.84;28.52;31.08;;
70740;Laerm;58330;51.888;11.052;2024-02-28T12:04:12;29.78;28.38;30.97;;
70740;Laerm;58330;51.888;11.052;2024-02-28T12:06:41;29.55;28.16;30.73;;
70740;Laerm;58330;51.888;11.052;2024-02-28T12:09:08;29.59;28.09;30.67;;
70740;Laerm;58330;51.888;11.052;2024-02-28T12:11:35;29.71;28.54;31.07;;
70740;Laerm;58330;51.888;11.052;2024-02-28T12:14:02;29.55;28.11;30.67;;
70740;Laerm;58330;51.888;11.052;2024-02-28T12:16:29;29.63;28.08;30.78;;
70740;Laerm;58330;51.888;11.052;2024-02-28T12:18:56;29.60;28.46;30.80;;
70740;Laerm;58330;51.888;11.052;2024-02-28T12:21:22;29.47;28.09;30.60;;
70740;Laerm;58330;51.888;11.052;2024-02-28T12:23:50;29.51;28.13;36.34;;
70740;Laerm;58330;51.888;11.052;2024-02-28T12:26:17;29.57;28.16;30.74;;
70740;Laerm;58330;51.888;11.052;2024-02-28T12:28:44;29.49;28.24;30.70;;
70740;Laerm;58330;51.888;11.052;2024-02-28T12:31:11;29.63;28.46;30.76;;
70740;Laerm;58330;51.888;11.052;2024-02-28T12:33:38;29.62;28.35;31.05;;
70740;Laerm;58330;51.888;11.052;2024-02-28T12:36:05;29.45;28.04;30.50;;
70740;Laerm;58330;51.888;11.052;2024-02-28T12:38:31;82.34;28.32;109.98;;
70740;Laerm;58330;51.888;11.052;2024-02-28T12:40:59;100.95;28.39;112.41;;
70740;Laerm;58330;51.888;11.052;2024-02-28T12:43:26;106.87;28.45;112.65;;
70740;Laerm;58330;51.888;11.052;2024-02-28T12:45:53;105.35;27.29;112.63;;
70740;Laerm;58330;51.888;11.052;2024-02-28T12:48:19;93.60;28.22;111.12;;
70740;Laerm;58330;51.888;11.052;2024-02-28T12:50:46;104.80;28.36;112.56;;
70740;Laerm;58330;51.888;11.052;2024-02-28T12:53:13;104.53;28.41;112.51;;
70740;Laerm;58330;51.888;11.052;2024-02-28T12:55:40;106.42;28.42;112.82;;
70740;Laerm;58330;51.888;11.052;2024-02-28T12:58:08;86.61;28.52;108.93;;
70740;Laerm;58330;51.888;11.052;2024-02-28T13:00:35;90.97;28.45;111.37;;
70740;Laerm;58330;51.888;11.052;2024-02-28T13:03:01;104.07;28.38;112.52;;
70740;Laerm;58330;51.888;11.052;2024-02-28T13:05:28;78.58;28.47;101.71;;
70740;Laerm;58330;51.888;11.052;2024-02-28T13:07:55;98.92;28.40;112.56;;
70740;Laerm;58330;51.888;11.052;2024-02-28T13:10:21;91.60;28.43;112.32;;
70740;Laerm;58330;51.888;11.052;2024-02-28T13:12:48;29.68;28.56;31.05;;
70740;Laerm;58330;51.888;11.052;2024-02-28T13:15:16;29.58;28.28;30.72;;
70740;Laerm;58330;51.888;11.052;2024-02-28T13:17:43;29.70;28.54;30.77;;
70740;Laerm;58330;51.888;11.052;2024-02-28T13:20:12;29.69;28.31;30.90;;
70740;Laerm;58330;51.888;11.052;2024-02-28T13:22:38;29.82;28.43;30.95;;
70740;Laerm;58330;51.888;11.052;2024-02-28T13:25:05;29.89;28.40;31.31;;
70740;Laerm;58330;51.888;11.052;2024-02-28T13:27:31;29.71;28.54;30.87;;
70740;Laerm;58330;51.888;11.052;2024-02-28T13:29:58;29.64;28.44;30.96;;
70740;Laerm;58330;51.888;11.052;2024-02-28T13:32:26;29.74;28.49;30.82;;
70740;Laerm;58330;51.888;11.052;2024-02-28T13:34:53;29.91;28.42;31.21;;